createdAt,value
2023-05-12T00:00:13.297Z,7.70
2023-05-12T00:02:42.477Z,7.10
2023-05-12T00:05:09.609Z,8.90
2023-05-12T00:07:36.775Z,9.80
2023-05-12T00:10:03.893Z,6.20
2023-05-12T00:12:30.801Z,8.40
2023-05-12T00:14:57.696Z,6.80
2023-05-12T00:17:24.564Z,10.40
2023-05-12T00:19:52.069Z,10.30
2023-05-12T00:22:19.069Z,8.70
2023-05-12T00:24:46.054Z,8.50
2023-05-12T00:27:14.145Z,9.40
2023-05-12T00:29:41.137Z,10.10
2023-05-12T00:32:08.462Z,8.20
2023-05-12T00:34:35.392Z,6.70
2023-05-12T00:37:02.415Z,6.70
2023-05-12T00:39:29.692Z,9.30
2023-05-12T00:41:57.490Z,7.70
2023-05-12T00:44:24.774Z,8.80
2023-05-12T00:46:51.939Z,8.40
2023-05-12T00:49:19.453Z,9.30
2023-05-12T00:51:46.548Z,8.40
2023-05-12T00:54:13.481Z,7.40
2023-05-12T00:56:40.667Z,9.10
2023-05-12T00:59:09.043Z,8.90
2023-05-12T01:01:39.402Z,9.00
2023-05-12T01:04:06.413Z,10.70
2023-05-12T01:06:39.032Z,7.10
2023-05-12T01:09:06.942Z,10.00
2023-05-12T01:11:33.858Z,7.50
2023-05-12T01:14:00.793Z,6.90
2023-05-12T01:16:30.858Z,9.90
2023-05-12T01:18:58.070Z,9.50
2023-05-12T01:21:25.001Z,8.70
2023-05-12T01:23:58.576Z,10.30
2023-05-12T01:26:29.986Z,8.40
2023-05-12T01:28:57.088Z,8.40
2023-05-12T01:31:25.247Z,8.20
2023-05-12T01:33:52.304Z,11.10
2023-05-12T01:36:19.397Z,7.40
2023-05-12T01:38:46.451Z,7.00
2023-05-12T01:41:13.416Z,6.30
2023-05-12T01:43:40.273Z,10.40
2023-05-12T01:46:07.275Z,14.90
2023-05-12T01:48:34.563Z,9.10
2023-05-12T01:51:01.836Z,10.80
2023-05-12T01:53:28.839Z,9.60
2023-05-12T01:55:55.827Z,11.00
2023-05-12T01:58:23.781Z,8.10
2023-05-12T02:00:50.870Z,10.20
2023-05-12T02:03:18.174Z,9.30
2023-05-12T02:05:45.238Z,6.80
2023-05-12T02:08:12.486Z,9.40
2023-05-12T02:10:39.434Z,7.80
2023-05-12T02:13:07.139Z,11.00
2023-05-12T02:15:34.625Z,10.10
2023-05-12T02:18:01.639Z,10.70
2023-05-12T02:20:29.845Z,12.00
2023-05-12T02:22:57.104Z,10.70
2023-05-12T02:25:24.031Z,10.10
2023-05-12T02:27:51.000Z,11.60
2023-05-12T02:30:18.306Z,11.40
2023-05-12T02:32:46.590Z,9.00
2023-05-12T02:35:13.845Z,8.30
2023-05-12T02:37:40.914Z,10.90
2023-05-12T02:40:08.615Z,12.10
2023-05-12T02:42:38.343Z,8.70
2023-05-12T02:45:06.001Z,10.30
2023-05-12T02:47:33.988Z,10.90
2023-05-12T02:50:00.998Z,10.20
2023-05-12T02:52:28.009Z,8.40
2023-05-12T02:54:56.293Z,7.20
2023-05-12T02:57:23.389Z,13.00
2023-05-12T02:59:50.262Z,10.00
2023-05-12T03:02:17.347Z,8.80
2023-05-12T03:04:44.355Z,11.10
2023-05-12T03:07:11.296Z,8.30
2023-05-12T03:09:38.433Z,10.50
2023-05-12T03:12:05.723Z,11.30
2023-05-12T03:14:32.704Z,8.50
2023-05-12T03:16:59.796Z,9.80
2023-05-12T03:19:28.030Z,10.40
2023-05-12T03:21:54.958Z,11.20
2023-05-12T03:24:22.047Z,10.40
2023-05-12T03:26:49.028Z,13.40
2023-05-12T03:29:16.007Z,12.80
2023-05-12T03:31:43.458Z,9.40
2023-05-12T03:34:10.632Z,11.10
2023-05-12T03:36:37.585Z,14.20
2023-05-12T03:39:04.926Z,14.80
2023-05-12T03:41:33.155Z,9.20
2023-05-12T03:44:00.161Z,12.50
2023-05-12T03:46:27.284Z,10.10
2023-05-12T03:48:54.385Z,12.20
2023-05-12T03:51:21.274Z,9.90
2023-05-12T03:53:51.857Z,10.50
2023-05-12T03:56:19.595Z,10.40
2023-05-12T03:58:47.764Z,10.90
2023-05-12T04:01:15.858Z,9.00
2023-05-12T04:03:43.432Z,10.70
2023-05-12T04:06:10.674Z,12.00
2023-05-12T04:08:39.011Z,12.00
2023-05-12T04:11:07.526Z,13.50
2023-05-12T04:13:34.888Z,11.70
2023-05-12T04:16:02.001Z,16.10
2023-05-12T04:18:29.186Z,15.10
2023-05-12T04:20:56.190Z,12.80
2023-05-12T04:23:23.242Z,10.60
2023-05-12T04:25:50.267Z,15.80
2023-05-12T04:28:17.244Z,15.80
2023-05-12T04:30:44.308Z,18.20
2023-05-12T04:33:11.307Z,15.00
2023-05-12T04:35:38.741Z,15.10
2023-05-12T04:38:05.923Z,15.40
2023-05-12T04:40:34.859Z,15.50
2023-05-12T04:43:03.256Z,18.50
2023-05-12T04:45:31.248Z,14.40
2023-05-12T04:47:58.301Z,16.10
2023-05-12T04:50:25.327Z,11.50
2023-05-12T04:52:52.342Z,11.30
2023-05-12T04:55:19.457Z,10.60
2023-05-12T04:57:46.758Z,13.80
2023-05-12T05:00:15.098Z,13.90
2023-05-12T05:02:43.678Z,12.50
2023-05-12T05:05:10.939Z,11.00
2023-05-12T05:07:38.182Z,11.80
2023-05-12T05:10:05.964Z,10.60
2023-05-12T05:12:33.416Z,9.40
2023-05-12T05:15:00.381Z,9.00
2023-05-12T05:17:28.283Z,9.80
2023-05-12T05:19:59.063Z,11.30
2023-05-12T05:22:29.510Z,8.70
2023-05-12T05:24:56.775Z,14.80
2023-05-12T05:27:23.636Z,9.20
2023-05-12T05:29:51.057Z,9.10
2023-05-12T05:32:18.470Z,8.20
2023-05-12T05:34:45.602Z,9.40
2023-05-12T05:37:13.076Z,10.60
2023-05-12T05:39:40.398Z,5.50
2023-05-12T05:42:07.373Z,7.20
2023-05-12T05:44:35.164Z,7.80
2023-05-12T05:47:03.295Z,8.20
2023-05-12T05:49:30.889Z,6.20
2023-05-12T05:54:26.174Z,5.80
2023-05-12T05:56:53.086Z,7.50
2023-05-12T05:59:20.136Z,6.50
2023-05-12T06:01:47.116Z,7.80
2023-05-12T06:04:14.130Z,7.10
2023-05-12T06:06:41.414Z,8.00
2023-05-12T06:09:09.744Z,6.00
2023-05-12T06:11:36.682Z,5.80
2023-05-12T06:14:03.519Z,5.60
2023-05-12T06:16:30.501Z,4.90
2023-05-12T06:18:57.574Z,6.40
2023-05-12T06:21:24.650Z,4.70
2023-05-12T06:23:52.108Z,5.60
2023-05-12T06:26:19.034Z,6.10
2023-05-12T06:28:46.004Z,5.60
2023-05-12T06:31:12.849Z,9.50
2023-05-12T06:33:39.780Z,4.80
2023-05-12T06:36:07.108Z,5.50
2023-05-12T06:38:33.928Z,12.50
2023-05-12T06:41:00.799Z,4.80
2023-05-12T06:43:27.824Z,5.40
2023-05-12T06:45:57.060Z,5.60
2023-05-12T06:48:24.527Z,4.60
2023-05-12T06:50:51.598Z,5.90
2023-05-12T06:53:18.510Z,3.90
2023-05-12T06:55:46.511Z,7.40
2023-05-12T06:58:13.440Z,5.00
2023-05-12T07:00:40.454Z,5.20
2023-05-12T07:03:10.504Z,4.60
2023-05-12T07:05:37.887Z,5.30
2023-05-12T07:08:05.386Z,4.70
2023-05-12T07:10:33.442Z,5.60
2023-05-12T07:13:00.464Z,6.50
2023-05-12T07:15:27.276Z,8.10
2023-05-12T07:17:55.962Z,3.80
2023-05-12T07:20:23.059Z,3.30
2023-05-12T07:22:51.696Z,5.60
2023-05-12T07:25:19.006Z,4.30
2023-05-12T07:27:46.193Z,3.70
2023-05-12T07:30:13.750Z,3.40
2023-05-12T07:32:40.699Z,6.50
2023-05-12T07:35:08.137Z,4.00
2023-05-12T07:37:35.344Z,5.50
2023-05-12T07:40:02.413Z,3.40
2023-05-12T07:42:29.227Z,3.40
2023-05-12T07:44:56.120Z,6.40
2023-05-12T07:47:23.000Z,5.10
2023-05-12T07:49:49.933Z,5.80
2023-05-12T07:52:16.900Z,4.10
2023-05-12T07:54:43.733Z,4.00
2023-05-12T07:57:11.269Z,3.80
2023-05-12T07:59:38.147Z,4.60
2023-05-12T08:02:05.038Z,3.60
2023-05-12T08:04:32.029Z,4.10
2023-05-12T08:06:59.384Z,5.30
2023-05-12T08:09:26.242Z,9.90
2023-05-12T08:11:53.050Z,4.60
2023-05-12T08:14:20.006Z,5.10
2023-05-12T08:16:47.085Z,5.30
2023-05-12T08:19:14.096Z,6.20
2023-05-12T08:21:40.971Z,4.70
2023-05-12T08:24:07.796Z,3.80
2023-05-12T08:26:36.720Z,4.90
2023-05-12T08:29:04.873Z,4.30
2023-05-12T08:31:32.253Z,4.90
2023-05-12T08:34:09.024Z,5.30
2023-05-12T08:36:39.214Z,4.50
2023-05-12T08:39:06.136Z,6.20
2023-05-12T08:42:03.461Z,4.90
2023-05-12T08:44:31.406Z,5.80
2023-05-12T08:46:58.355Z,4.60
2023-05-12T08:49:25.768Z,7.00
2023-05-12T08:51:57.948Z,4.40
2023-05-12T08:54:27.146Z,3.30
2023-05-12T08:59:24.186Z,7.70
2023-05-12T09:01:51.208Z,3.40
2023-05-12T09:04:18.414Z,7.00
2023-05-12T09:06:45.598Z,7.10
2023-05-12T09:09:16.853Z,3.30
2023-05-12T09:11:43.962Z,8.00
2023-05-12T09:14:22.759Z,4.40
2023-05-12T09:16:50.921Z,4.80
2023-05-12T09:19:21.376Z,4.20
2023-05-12T09:21:48.578Z,5.00
2023-05-12T09:24:15.649Z,6.70
2023-05-12T09:26:49.594Z,4.40
2023-05-12T09:29:27.892Z,4.50
2023-05-12T09:31:58.839Z,6.80
2023-05-12T09:37:05.293Z,7.70
2023-05-12T09:39:32.647Z,4.90
2023-05-12T09:41:59.748Z,3.70
2023-05-12T09:44:26.937Z,7.00
2023-05-12T09:46:53.761Z,4.20
2023-05-12T09:49:28.148Z,6.30
2023-05-12T09:52:00.896Z,4.30
2023-05-12T09:54:29.883Z,4.20
2023-05-12T09:57:01.515Z,5.80
2023-05-12T09:59:31.639Z,5.40
2023-05-12T10:02:00.347Z,6.80
2023-05-12T10:04:32.916Z,4.90
2023-05-12T10:06:59.841Z,3.60
2023-05-12T10:09:31.666Z,8.50
2023-05-12T10:11:58.517Z,4.40
2023-05-12T10:14:25.420Z,5.20
2023-05-12T10:16:52.343Z,3.60
2023-05-12T10:19:19.172Z,6.30
2023-05-12T10:21:48.959Z,4.60
2023-05-12T10:24:16.946Z,3.50
2023-05-12T10:26:44.868Z,2.40
2023-05-12T10:29:12.520Z,3.50
2023-05-12T10:31:39.638Z,3.50
2023-05-12T10:34:07.078Z,3.70
2023-05-12T10:36:48.222Z,3.90
2023-05-12T10:39:16.334Z,6.10
2023-05-12T10:41:43.211Z,4.30
2023-05-12T10:44:13.767Z,3.40
2023-05-12T10:46:40.740Z,3.60
2023-05-12T10:49:13.049Z,2.90
2023-05-12T10:51:43.245Z,9.40
2023-05-12T10:54:11.165Z,7.00
2023-05-12T10:56:41.189Z,2.20
2023-05-12T10:59:17.987Z,5.70
2023-05-12T11:02:09.120Z,2.10
2023-05-12T11:04:49.014Z,2.80
2023-05-12T11:07:17.091Z,2.50
2023-05-12T11:12:16.978Z,6.50
2023-05-12T11:14:45.054Z,3.40
2023-05-12T11:17:12.298Z,3.10
2023-05-12T11:19:40.176Z,4.40
2023-05-12T11:22:09.499Z,4.50
2023-05-12T11:24:37.144Z,2.70
2023-05-12T11:27:04.763Z,5.30
2023-05-12T11:29:31.889Z,6.70
2023-05-12T11:32:00.727Z,3.40
2023-05-12T11:34:28.040Z,2.80
2023-05-12T11:36:56.090Z,5.80
2023-05-12T11:39:24.700Z,4.20
2023-05-12T11:41:56.594Z,4.30
2023-05-12T11:44:29.528Z,2.90
2023-05-12T11:47:01.163Z,4.30
2023-05-12T11:49:29.869Z,3.10
2023-05-12T11:54:25.344Z,2.90
2023-05-12T11:56:54.025Z,4.90
2023-05-12T11:59:28.511Z,5.10
2023-05-12T12:01:55.841Z,3.80
2023-05-12T12:04:36.490Z,3.70
2023-05-12T12:07:05.550Z,4.70
2023-05-12T12:09:40.970Z,3.80
2023-05-12T12:12:09.046Z,4.90
2023-05-12T12:14:38.083Z,6.90
2023-05-12T12:17:05.261Z,3.40
2023-05-12T12:19:32.039Z,4.20
2023-05-12T12:21:59.327Z,2.80
2023-05-12T12:24:26.361Z,5.20
2023-05-12T12:26:53.215Z,2.00
2023-05-12T12:29:20.176Z,4.50
2023-05-12T12:31:47.180Z,4.20
2023-05-12T12:34:14.233Z,6.50
2023-05-12T12:36:41.398Z,2.70
2023-05-12T12:39:08.217Z,3.20
2023-05-12T12:41:35.027Z,3.60
2023-05-12T12:44:01.843Z,3.10
2023-05-12T12:46:28.891Z,4.00
2023-05-12T12:48:57.417Z,5.60
2023-05-12T12:51:26.851Z,5.50
2023-05-12T12:53:59.619Z,4.00
2023-05-12T12:56:26.632Z,10.80
2023-05-12T12:58:53.902Z,3.90
2023-05-12T13:01:20.773Z,2.30
2023-05-12T13:03:47.743Z,2.10
2023-05-12T13:06:14.783Z,4.10
2023-05-12T13:08:42.955Z,4.90
2023-05-12T13:11:09.873Z,2.50
2023-05-12T13:13:37.709Z,4.60
2023-05-12T13:16:04.874Z,3.80
2023-05-12T13:18:31.889Z,5.80
2023-05-12T13:20:59.272Z,4.30
2023-05-12T13:23:26.250Z,4.40
2023-05-12T13:25:53.269Z,3.30
2023-05-12T13:28:20.200Z,6.30
2023-05-12T13:30:47.070Z,4.30
2023-05-12T13:33:13.978Z,3.70
2023-05-12T13:35:41.431Z,3.30
2023-05-12T13:38:10.179Z,5.60
2023-05-12T13:40:37.383Z,3.70
2023-05-12T13:43:04.373Z,6.60
2023-05-12T13:45:31.578Z,6.50
2023-05-12T13:47:58.472Z,3.20
2023-05-12T13:50:25.327Z,4.20
2023-05-12T13:52:52.288Z,2.30
2023-05-12T13:55:21.732Z,3.60
2023-05-12T13:57:49.355Z,5.10
2023-05-12T14:00:19.493Z,3.50
2023-05-12T14:02:46.948Z,6.00
2023-05-12T14:05:14.600Z,5.80
2023-05-12T14:07:42.738Z,2.90
2023-05-12T14:10:10.556Z,2.80
2023-05-12T14:12:37.612Z,3.90
2023-05-12T14:15:21.857Z,4.60
2023-05-12T14:17:52.653Z,5.70
2023-05-12T14:20:19.899Z,4.10
2023-05-12T14:22:46.701Z,8.00
2023-05-12T14:25:13.649Z,4.90
2023-05-12T14:27:40.667Z,3.80
2023-05-12T14:30:09.209Z,6.20
2023-05-12T14:32:36.119Z,4.00
2023-05-12T14:35:04.144Z,5.60
2023-05-12T14:37:31.730Z,3.50
2023-05-12T14:39:58.697Z,4.30
2023-05-12T14:42:28.459Z,4.20
2023-05-12T14:44:55.587Z,4.20
2023-05-12T14:47:22.660Z,6.40
2023-05-12T14:49:49.800Z,4.40
2023-05-12T14:52:16.836Z,8.40
2023-05-12T14:54:44.503Z,3.90
2023-05-12T14:57:13.583Z,4.10
2023-05-12T14:59:40.561Z,4.40
2023-05-12T15:02:07.940Z,5.40
2023-05-12T15:04:34.806Z,4.20
2023-05-12T15:07:01.647Z,3.90
2023-05-12T15:09:28.507Z,3.10
2023-05-12T15:11:55.470Z,4.80
2023-05-12T15:16:49.360Z,3.70
2023-05-12T15:19:17.590Z,4.70
2023-05-12T15:24:11.482Z,2.90
2023-05-12T15:26:40.078Z,5.70
2023-05-12T15:29:07.713Z,6.30
2023-05-12T15:31:35.309Z,3.90
2023-05-12T15:34:02.348Z,3.50
2023-05-12T15:36:29.814Z,4.60
2023-05-12T15:38:56.784Z,6.00
2023-05-12T15:41:23.679Z,4.40
2023-05-12T15:43:50.698Z,4.80
2023-05-12T15:46:17.494Z,4.90
2023-05-12T15:48:44.441Z,4.80
2023-05-12T15:51:11.335Z,7.30
2023-05-12T15:53:38.162Z,3.80
2023-05-12T15:56:05.523Z,4.10
2023-05-12T15:58:32.434Z,6.50
2023-05-12T16:00:59.530Z,6.90
2023-05-12T16:03:26.621Z,3.50
2023-05-12T16:05:53.554Z,4.30
2023-05-12T16:08:20.533Z,3.70
2023-05-12T16:10:47.449Z,2.70
2023-05-12T16:13:14.672Z,5.50
2023-05-12T16:15:41.562Z,3.80
2023-05-12T16:18:11.113Z,2.80
2023-05-12T16:20:39.112Z,5.50
2023-05-12T16:23:06.035Z,6.50
2023-05-12T16:25:32.972Z,6.70
2023-05-12T16:27:59.912Z,3.70
2023-05-12T16:30:26.995Z,5.60
2023-05-12T16:32:54.037Z,5.60
2023-05-12T16:35:22.201Z,6.90
2023-05-12T16:40:16.398Z,8.90
2023-05-12T16:42:43.266Z,10.50
2023-05-12T16:45:11.301Z,5.00
2023-05-12T16:47:38.441Z,3.70
2023-05-12T16:50:06.274Z,8.40
2023-05-12T16:52:33.901Z,6.60
2023-05-12T16:55:00.836Z,7.70
2023-05-12T16:57:27.710Z,6.30
2023-05-12T16:59:54.461Z,12.10
2023-05-12T17:02:21.412Z,4.00
2023-05-12T17:04:48.238Z,9.70
2023-05-12T17:07:15.148Z,8.00
2023-05-12T17:09:42.120Z,12.20
2023-05-12T17:12:09.139Z,4.90
2023-05-12T17:14:36.047Z,7.10
2023-05-12T17:17:03.550Z,6.30
2023-05-12T17:19:30.768Z,5.30
2023-05-12T17:21:57.665Z,6.40
2023-05-12T17:24:24.655Z,10.30
2023-05-12T17:26:51.544Z,8.20
2023-05-12T17:29:18.464Z,8.10
2023-05-12T17:31:45.372Z,4.80
2023-05-12T17:34:12.278Z,6.90
2023-05-12T17:36:39.153Z,6.80
2023-05-12T17:39:06.116Z,3.80
2023-05-12T17:41:32.966Z,11.10
2023-05-12T17:43:59.907Z,14.90
2023-05-12T17:46:26.698Z,57.40
2023-05-12T17:48:53.543Z,59.20
2023-05-12T17:51:20.292Z,47.50
2023-05-12T17:53:47.316Z,26.90
2023-05-12T17:56:14.167Z,16.80
2023-05-12T17:58:41.761Z,18.50
2023-05-12T18:01:08.739Z,15.60
2023-05-12T18:03:35.636Z,10.50
2023-05-12T18:06:02.765Z,5.80
2023-05-12T18:08:29.712Z,15.40
2023-05-12T18:10:56.518Z,8.30
2023-05-12T18:13:23.381Z,11.60
2023-05-12T18:15:50.308Z,9.40
2023-05-12T18:18:17.286Z,7.50
2023-05-12T18:20:44.265Z,9.60
2023-05-12T18:23:11.111Z,9.80
2023-05-12T18:25:38.100Z,12.30
2023-05-12T18:28:06.662Z,10.50
2023-05-12T18:30:33.671Z,12.80
2023-05-12T18:33:00.683Z,36.00
2023-05-12T18:35:27.598Z,30.40
2023-05-12T18:37:54.630Z,23.60
2023-05-12T18:40:21.957Z,19.50
2023-05-12T18:42:48.784Z,21.10
2023-05-12T18:45:15.830Z,14.90
2023-05-12T18:47:42.912Z,15.00
2023-05-12T18:50:10.197Z,13.10
2023-05-12T18:52:37.201Z,15.70
2023-05-12T18:55:04.294Z,10.40
2023-05-12T18:57:31.143Z,17.10
2023-05-12T18:59:58.001Z,21.10
2023-05-12T19:02:24.941Z,18.10
2023-05-12T19:04:52.630Z,15.30
2023-05-12T19:07:19.572Z,8.00
2023-05-12T19:09:46.498Z,13.10
2023-05-12T19:12:13.410Z,13.90
2023-05-12T19:14:40.632Z,11.40
2023-05-12T19:17:07.801Z,12.00
2023-05-12T19:19:34.948Z,6.40
2023-05-12T19:22:02.217Z,5.70
2023-05-12T19:24:29.325Z,7.00
2023-05-12T19:26:56.268Z,9.80
2023-05-12T19:29:23.315Z,5.00
2023-05-12T19:31:51.088Z,5.90
2023-05-12T19:34:17.955Z,5.40
2023-05-12T19:36:44.951Z,6.50
2023-05-12T19:39:11.787Z,5.40
2023-05-12T19:41:39.452Z,3.70
2023-05-12T19:44:06.335Z,3.50
2023-05-12T19:46:33.101Z,4.80
2023-05-12T19:49:00.464Z,3.90
2023-05-12T19:51:27.351Z,3.90
2023-05-12T19:53:54.127Z,4.90
2023-05-12T19:56:20.945Z,3.80
2023-05-12T19:58:48.070Z,2.00
2023-05-12T20:01:14.841Z,3.30
2023-05-12T20:03:41.669Z,2.20
2023-05-12T20:06:08.420Z,3.50
2023-05-12T20:08:35.299Z,3.40
2023-05-12T20:11:02.074Z,4.90
2023-05-12T20:13:28.919Z,4.20
2023-05-12T20:15:56.180Z,6.30
2023-05-12T20:18:23.906Z,3.60
2023-05-12T20:20:50.884Z,4.30
2023-05-12T20:23:17.699Z,4.50
2023-05-12T20:25:44.580Z,4.70
2023-05-12T20:28:11.879Z,3.20
2023-05-12T20:30:38.698Z,4.40
2023-05-12T20:33:05.611Z,2.90
2023-05-12T20:35:32.528Z,4.30
2023-05-12T20:37:59.440Z,4.60
2023-05-12T20:40:26.338Z,4.10
2023-05-12T20:42:53.256Z,4.90
2023-05-12T20:45:20.508Z,3.80
2023-05-12T20:47:47.655Z,5.50
2023-05-12T20:50:15.280Z,5.40
2023-05-12T20:52:42.288Z,7.50
2023-05-12T20:55:09.531Z,4.00
2023-05-12T20:57:37.893Z,4.20
2023-05-12T21:00:05.505Z,5.10
2023-05-12T21:02:32.383Z,4.90
2023-05-12T21:04:59.285Z,5.90
2023-05-12T21:07:26.140Z,5.30
2023-05-12T21:09:52.939Z,6.00
2023-05-12T21:12:19.827Z,6.00
2023-05-12T21:14:46.723Z,5.40
2023-05-12T21:17:13.512Z,5.20
2023-05-12T21:19:40.438Z,4.80
2023-05-12T21:22:07.533Z,4.20
2023-05-12T21:24:34.518Z,5.00
2023-05-12T21:27:02.191Z,4.40
2023-05-12T21:29:29.146Z,7.80
2023-05-12T21:31:56.026Z,4.70
2023-05-12T21:34:22.902Z,6.90
2023-05-12T21:36:49.953Z,3.80
2023-05-12T21:39:17.114Z,5.90
2023-05-12T21:41:43.951Z,4.40
2023-05-12T21:44:11.457Z,3.70
2023-05-12T21:46:38.666Z,6.10
2023-05-12T21:49:05.535Z,3.90
2023-05-12T21:51:33.305Z,3.60
2023-05-12T21:54:00.240Z,5.00
2023-05-12T21:56:27.030Z,4.70
2023-05-12T21:58:53.888Z,6.70
2023-05-12T22:01:20.713Z,5.50
2023-05-12T22:03:47.549Z,6.80
2023-05-12T22:06:14.359Z,5.40
2023-05-12T22:08:41.249Z,5.20
2023-05-12T22:11:08.123Z,5.70
2023-05-12T22:13:35.108Z,3.90
2023-05-12T22:16:04.122Z,9.70
2023-05-12T22:18:31.783Z,7.90
2023-05-12T22:20:58.973Z,4.90
2023-05-12T22:23:25.908Z,6.30
2023-05-12T22:25:52.764Z,5.10
2023-05-12T22:28:19.600Z,7.70
2023-05-12T22:30:46.406Z,4.30
2023-05-12T22:33:13.182Z,4.60
2023-05-12T22:35:39.990Z,8.00
2023-05-12T22:38:07.003Z,4.00
2023-05-12T22:40:33.887Z,3.70
2023-05-12T22:43:00.730Z,6.20
2023-05-12T22:45:27.612Z,3.50
2023-05-12T22:47:54.821Z,4.20
2023-05-12T22:50:22.049Z,6.70
2023-05-12T22:52:49.146Z,3.40
2023-05-12T22:55:16.010Z,4.00
2023-05-12T22:57:45.438Z,5.60
2023-05-12T23:00:12.719Z,7.50
2023-05-12T23:02:39.570Z,6.80
2023-05-12T23:05:06.871Z,3.70
2023-05-12T23:07:33.746Z,3.70
2023-05-12T23:10:00.552Z,4.60
2023-05-12T23:12:27.464Z,4.80
2023-05-12T23:14:54.374Z,5.40
2023-05-12T23:17:21.174Z,4.00
2023-05-12T23:19:48.118Z,4.70
2023-05-12T23:22:15.191Z,6.50
2023-05-12T23:24:42.272Z,4.40
2023-05-12T23:27:09.051Z,4.40
2023-05-12T23:29:35.961Z,5.90
2023-05-12T23:32:03.231Z,4.00
2023-05-12T23:34:30.089Z,4.70
2023-05-12T23:36:56.943Z,7.20
2023-05-12T23:39:23.831Z,5.10
2023-05-12T23:41:50.777Z,6.60
2023-05-12T23:44:17.714Z,4.60
2023-05-12T23:46:44.624Z,6.60
2023-05-12T23:49:11.607Z,2.90
2023-05-12T23:51:38.472Z,7.30
2023-05-12T23:54:05.282Z,7.40
2023-05-12T23:56:32.078Z,5.30
2023-05-12T23:58:58.919Z,7.30
